Elkhart Lake, Wisconsin
Current Conditions -  °F | °C
As of 2:25 PM on Monday 24 Nov 2014 (Local Time) from KSBM Reporting Station
Light Snow Light Snow  
Wind Chill: -5°   Ceiling: 800
Heat Index:   Visibility: 1mi
Dew Point: -1°   Wind: 15mph
Humidity: 92%   Direction: 260°W
Pressure: 29.2"   Gusts: NA
Location:  43.83°N, 88.02°W
Report Text: KSBM 242025Z AUTO 26013KT 1SM -SN BR BKN008 OVC012 01/M01 A2920 RMK AO2 P0003 T00061006
Loading
Personal Weather Stations






























Interactive Weather Map New forecast layout! Learn more

10-Day Weather Forecast

Advertisements
Track Severe Weather on mobile